Sugar Land Regional Airport
KSGR : now visible

Airfield :











YOU CAN JOIN US ON...

 
LOGIN :

Register | Disclaimer

   EN    FR    IT 

 









Legend :    VFR   Marginal VFR   IFR   Intensive IFR   Very Intensive IFR
Visi :
Ceiling :
>= 8 km
>= 3000ft
5 to 8 km
1000 to 3000 ft
1500m to 5 km
500 to 1000 ft
800 to 1500m
200 to 500 ft
< 800m
< 200 ft
Symbols :   Thunderstorms  Fog  Heavy snow  Heavy precipitations  Wind > 20 kt






- Airport Elevation : 82 ft


KSGR - Sugar Land Regional

CURRENT METAR :
  • 141253Z 00000KT 10SM CLR 07/07 A2988 RMK AO2 SLP119 T00720072

EXPIRED METARs :
  • 141156Z 00000KT 9SM CLR 07/07 A2986 RMK AO2 T00720067
  • 141053Z AUTO 00000KT 10SM CLR 08/07 A2985 RMK AO2 SLP109 T00830072

TAF KSGR
Valid from the 14 at 12:00 until the 15 at 12:00 UTC


141135Z 1412/1512 VRB03KT P6SM SKC
FM141800 09005KT P6SM SKC
FM142100 14006KT P6SM FEW040 SCT250
FM150600 17005KT P6SM BKN025
FM150900 17005KT 6SM BR SCT008 BKN018



MET'MAP, your aeronautical weather chart ! - Copyright ORBIFLY December 2007 - Disclaimer

ORBIFLY MET'MAP TEAM :

Programming & Development : Alexandra Zaïnal
Concept & original design : Baudouin d'Aumeries
Assistance for programming : Marc-Olivier Méhu
Technical & hardware support : Manuel Goepfert

Contact : metmap@orbifly.com




SOURCES & CREDITS :

   NOAA       Earth
Advisory